sensor_id;sensor_type;location;lat;lon;timestamp;temperature;humidity
57390;DHT22;43217;52.694;6.214;2024-03-17T00:00:24;4.80;99.90
57390;DHT22;43217;52.694;6.214;2024-03-17T00:02:50;4.80;99.90
57390;DHT22;43217;52.694;6.214;2024-03-17T00:05:15;4.80;99.90
57390;DHT22;43217;52.694;6.214;2024-03-17T00:07:44;4.80;99.90
57390;DHT22;43217;52.694;6.214;2024-03-17T00:10:09;4.80;99.90
57390;DHT22;43217;52.694;6.214;2024-03-17T00:12:36;4.80;99.90
57390;DHT22;43217;52.694;6.214;2024-03-17T00:15:02;4.80;99.90
57390;DHT22;43217;52.694;6.214;2024-03-17T00:17:28;4.80;99.90
57390;DHT22;43217;52.694;6.214;2024-03-17T00:19:54;4.90;99.90
57390;DHT22;43217;52.694;6.214;2024-03-17T00:22:20;4.90;99.90
57390;DHT22;43217;52.694;6.214;2024-03-17T00:24:46;5.00;99.90
57390;DHT22;43217;52.694;6.214;2024-03-17T00:27:11;5.00;99.90
57390;DHT22;43217;52.694;6.214;2024-03-17T00:29:38;5.00;99.90
57390;DHT22;43217;52.694;6.214;2024-03-17T00:32:04;5.00;99.90
57390;DHT22;43217;52.694;6.214;2024-03-17T00:34:30;5.00;99.90
57390;DHT22;43217;52.694;6.214;2024-03-17T00:36:55;5.00;99.90
57390;DHT22;43217;52.694;6.214;2024-03-17T00:39:21;4.90;99.90
57390;DHT22;43217;52.694;6.214;2024-03-17T00:41:48;4.90;99.90
57390;DHT22;43217;52.694;6.214;2024-03-17T00:44:14;4.90;99.90
57390;DHT22;43217;52.694;6.214;2024-03-17T00:46:42;4.90;99.90
57390;DHT22;43217;52.694;6.214;2024-03-17T00:49:09;4.90;99.90
57390;DHT22;43217;52.694;6.214;2024-03-17T00:51:35;4.90;99.90
57390;DHT22;43217;52.694;6.214;2024-03-17T00:54:01;4.90;99.90
57390;DHT22;43217;52.694;6.214;2024-03-17T00:56:27;4.90;99.90
57390;DHT22;43217;52.694;6.214;2024-03-17T00:58:53;4.90;99.90
57390;DHT22;43217;52.694;6.214;2024-03-17T01:01:19;4.90;99.90
57390;DHT22;43217;52.694;6.214;2024-03-17T01:03:45;4.80;99.90
57390;DHT22;43217;52.694;6.214;2024-03-17T01:06:11;4.80;99.90
57390;DHT22;43217;52.694;6.214;2024-03-17T01:08:37;4.80;99.90
57390;DHT22;43217;52.694;6.214;2024-03-17T01:11:02;4.70;99.90
57390;DHT22;43217;52.694;6.214;2024-03-17T01:13:28;4.70;99.90
57390;DHT22;43217;52.694;6.214;2024-03-17T01:15:54;4.70;99.90
57390;DHT22;43217;52.694;6.214;2024-03-17T01:18:19;4.60;99.90
57390;DHT22;43217;52.694;6.214;2024-03-17T01:20:45;4.60;99.90
57390;DHT22;43217;52.694;6.214;2024-03-17T01:23:11;4.60;99.90
57390;DHT22;43217;52.694;6.214;2024-03-17T01:25:37;4.70;99.90
57390;DHT22;43217;52.694;6.214;2024-03-17T01:28:05;4.70;99.90
57390;DHT22;43217;52.694;6.214;2024-03-17T01:30:32;4.70;99.90
57390;DHT22;43217;52.694;6.214;2024-03-17T01:32:58;4.70;99.90
57390;DHT22;43217;52.694;6.214;2024-03-17T01:35:25;4.70;99.90
57390;DHT22;43217;52.694;6.214;2024-03-17T01:37:51;4.70;99.90
57390;DHT22;43217;52.694;6.214;2024-03-17T01:40:17;4.70;99.90
57390;DHT22;43217;52.694;6.214;2024-03-17T01:42:42;4.60;99.90
57390;DHT22;43217;52.694;6.214;2024-03-17T01:45:24;4.60;99.90
57390;DHT22;43217;52.694;6.214;2024-03-17T01:47:51;4.60;99.90
57390;DHT22;43217;52.694;6.214;2024-03-17T01:50:17;4.60;99.90
57390;DHT22;43217;52.694;6.214;2024-03-17T01:52:46;4.60;99.90
57390;DHT22;43217;52.694;6.214;2024-03-17T01:55:13;4.50;99.90
57390;DHT22;43217;52.694;6.214;2024-03-17T01:57:39;4.60;99.90
57390;DHT22;43217;52.694;6.214;2024-03-17T02:00:06;4.50;99.90
57390;DHT22;43217;52.694;6.214;2024-03-17T02:02:34;4.40;99.90
57390;DHT22;43217;52.694;6.214;2024-03-17T02:04:59;4.40;99.90
57390;DHT22;43217;52.694;6.214;2024-03-17T02:07:25;4.40;99.90
57390;DHT22;43217;52.694;6.214;2024-03-17T02:09:51;4.40;99.90
57390;DHT22;43217;52.694;6.214;2024-03-17T02:12:16;4.40;99.90
57390;DHT22;43217;52.694;6.214;2024-03-17T02:14:42;4.40;99.90
57390;DHT22;43217;52.694;6.214;2024-03-17T02:17:08;4.40;99.90
57390;DHT22;43217;52.694;6.214;2024-03-17T02:19:34;4.30;99.90
57390;DHT22;43217;52.694;6.214;2024-03-17T02:22:00;4.40;99.90
57390;DHT22;43217;52.694;6.214;2024-03-17T02:24:25;4.40;99.90
57390;DHT22;43217;52.694;6.214;2024-03-17T02:26:51;4.40;99.90
57390;DHT22;43217;52.694;6.214;2024-03-17T02:29:17;4.40;99.90
57390;DHT22;43217;52.694;6.214;2024-03-17T02:31:43;4.30;99.90
57390;DHT22;43217;52.694;6.214;2024-03-17T02:34:08;4.30;99.90
57390;DHT22;43217;52.694;6.214;2024-03-17T02:36:34;4.30;99.90
57390;DHT22;43217;52.694;6.214;2024-03-17T02:38:59;4.30;99.90
57390;DHT22;43217;52.694;6.214;2024-03-17T02:41:44;4.30;99.90
57390;DHT22;43217;52.694;6.214;2024-03-17T02:44:11;4.40;99.90
57390;DHT22;43217;52.694;6.214;2024-03-17T02:46:37;4.40;99.90
57390;DHT22;43217;52.694;6.214;2024-03-17T02:49:03;4.40;99.90
57390;DHT22;43217;52.694;6.214;2024-03-17T02:51:29;4.40;99.90
57390;DHT22;43217;52.694;6.214;2024-03-17T02:53:55;4.40;99.90
57390;DHT22;43217;52.694;6.214;2024-03-17T02:56:21;4.40;99.90
57390;DHT22;43217;52.694;6.214;2024-03-17T02:58:48;4.40;99.90
57390;DHT22;43217;52.694;6.214;2024-03-17T03:01:15;4.40;99.90
57390;DHT22;43217;52.694;6.214;2024-03-17T03:03:41;4.40;99.90
57390;DHT22;43217;52.694;6.214;2024-03-17T03:06:06;4.40;99.90
57390;DHT22;43217;52.694;6.214;2024-03-17T03:08:40;4.50;99.90
57390;DHT22;43217;52.694;6.214;2024-03-17T03:11:07;4.50;99.90
57390;DHT22;43217;52.694;6.214;2024-03-17T03:13:37;4.50;99.90
57390;DHT22;43217;52.694;6.214;2024-03-17T03:16:04;4.50;99.90
57390;DHT22;43217;52.694;6.214;2024-03-17T03:18:30;4.50;99.90
57390;DHT22;43217;52.694;6.214;2024-03-17T03:20:55;4.50;99.90
57390;DHT22;43217;52.694;6.214;2024-03-17T03:23:21;4.50;99.90
57390;DHT22;43217;52.694;6.214;2024-03-17T03:25:47;4.60;99.90
57390;DHT22;43217;52.694;6.214;2024-03-17T03:28:13;4.60;99.90
57390;DHT22;43217;52.694;6.214;2024-03-17T03:30:39;4.60;99.90
57390;DHT22;43217;52.694;6.214;2024-03-17T03:33:05;4.60;99.90
57390;DHT22;43217;52.694;6.214;2024-03-17T03:35:31;4.60;99.90
57390;DHT22;43217;52.694;6.214;2024-03-17T03:37:56;4.60;99.90
57390;DHT22;43217;52.694;6.214;2024-03-17T03:40:22;4.60;99.90
57390;DHT22;43217;52.694;6.214;2024-03-17T03:42:48;4.60;99.90
57390;DHT22;43217;52.694;6.214;2024-03-17T03:45:14;4.60;99.90
57390;DHT22;43217;52.694;6.214;2024-03-17T03:47:43;4.60;99.90
57390;DHT22;43217;52.694;6.214;2024-03-17T03:50:10;4.60;99.90
57390;DHT22;43217;52.694;6.214;2024-03-17T03:52:39;4.50;99.90
57390;DHT22;43217;52.694;6.214;2024-03-17T03:55:09;4.50;99.90
57390;DHT22;43217;52.694;6.214;2024-03-17T03:57:41;4.50;99.90
57390;DHT22;43217;52.694;6.214;2024-03-17T04:00:08;4.50;99.90
57390;DHT22;43217;52.694;6.214;2024-03-17T04:02:40;4.50;99.90
57390;DHT22;43217;52.694;6.214;2024-03-17T04:05:07;4.50;99.90
57390;DHT22;43217;52.694;6.214;2024-03-17T04:07:33;4.60;99.90
57390;DHT22;43217;52.694;6.214;2024-03-17T04:10:00;4.60;99.90
57390;DHT22;43217;52.694;6.214;2024-03-17T04:12:26;4.60;99.90
57390;DHT22;43217;52.694;6.214;2024-03-17T04:14:53;4.60;99.90
57390;DHT22;43217;52.694;6.214;2024-03-17T04:17:19;4.60;99.90
57390;DHT22;43217;52.694;6.214;2024-03-17T04:19:53;4.70;99.90
57390;DHT22;43217;52.694;6.214;2024-03-17T04:22:19;4.60;99.90
57390;DHT22;43217;52.694;6.214;2024-03-17T04:24:49;4.70;99.90
57390;DHT22;43217;52.694;6.214;2024-03-17T04:27:23;4.70;99.90
57390;DHT22;43217;52.694;6.214;2024-03-17T04:29:56;4.70;99.90
57390;DHT22;43217;52.694;6.214;2024-03-17T04:32:23;4.80;99.90
57390;DHT22;43217;52.694;6.214;2024-03-17T04:34:49;4.80;99.90
57390;DHT22;43217;52.694;6.214;2024-03-17T04:37:14;4.80;99.90
57390;DHT22;43217;52.694;6.214;2024-03-17T04:39:44;4.80;99.90
57390;DHT22;43217;52.694;6.214;2024-03-17T04:42:15;4.90;99.90
57390;DHT22;43217;52.694;6.214;2024-03-17T04:44:41;4.90;99.90
57390;DHT22;43217;52.694;6.214;2024-03-17T04:47:07;4.90;99.90
57390;DHT22;43217;52.694;6.214;2024-03-17T04:49:37;5.00;99.90
57390;DHT22;43217;52.694;6.214;2024-03-17T04:52:03;5.00;99.90
57390;DHT22;43217;52.694;6.214;2024-03-17T04:54:31;5.00;99.90
57390;DHT22;43217;52.694;6.214;2024-03-17T04:56:56;5.00;99.90
57390;DHT22;43217;52.694;6.214;2024-03-17T04:59:22;5.10;99.90
57390;DHT22;43217;52.694;6.214;2024-03-17T05:01:48;5.10;99.90
57390;DHT22;43217;52.694;6.214;2024-03-17T05:04:14;5.00;99.90
57390;DHT22;43217;52.694;6.214;2024-03-17T05:06:40;5.10;99.90
57390;DHT22;43217;52.694;6.214;2024-03-17T05:09:08;5.10;99.90
57390;DHT22;43217;52.694;6.214;2024-03-17T05:11:33;5.10;99.90
57390;DHT22;43217;52.694;6.214;2024-03-17T05:14:00;5.10;99.90
57390;DHT22;43217;52.694;6.214;2024-03-17T05:16:26;5.10;99.90
57390;DHT22;43217;52.694;6.214;2024-03-17T05:18:55;5.10;99.90
57390;DHT22;43217;52.694;6.214;2024-03-17T05:21:21;5.10;99.90
57390;DHT22;43217;52.694;6.214;2024-03-17T05:23:47;5.10;99.90
57390;DHT22;43217;52.694;6.214;2024-03-17T05:26:14;5.10;99.90
57390;DHT22;43217;52.694;6.214;2024-03-17T05:28:39;5.10;99.90
57390;DHT22;43217;52.694;6.214;2024-03-17T05:31:05;5.10;99.90
57390;DHT22;43217;52.694;6.214;2024-03-17T05:33:31;5.10;99.90
57390;DHT22;43217;52.694;6.214;2024-03-17T05:36:02;5.20;99.90
57390;DHT22;43217;52.694;6.214;2024-03-17T05:38:29;5.20;99.90
57390;DHT22;43217;52.694;6.214;2024-03-17T05:40:59;5.20;99.90
57390;DHT22;43217;52.694;6.214;2024-03-17T05:43:30;5.20;99.90
57390;DHT22;43217;52.694;6.214;2024-03-17T05:46:00;5.20;99.90
57390;DHT22;43217;52.694;6.214;2024-03-17T05:48:27;5.20;99.90
57390;DHT22;43217;52.694;6.214;2024-03-17T05:50:53;5.20;99.90
57390;DHT22;43217;52.694;6.214;2024-03-17T05:53:19;5.20;99.90
57390;DHT22;43217;52.694;6.214;2024-03-17T05:55:45;5.30;99.90
57390;DHT22;43217;52.694;6.214;2024-03-17T05:58:11;5.30;99.90
57390;DHT22;43217;52.694;6.214;2024-03-17T06:00:40;5.30;99.90
57390;DHT22;43217;52.694;6.214;2024-03-17T06:03:06;5.30;99.90
57390;DHT22;43217;52.694;6.214;2024-03-17T06:05:33;5.30;99.90
57390;DHT22;43217;52.694;6.214;2024-03-17T06:08:00;5.30;99.90
57390;DHT22;43217;52.694;6.214;2024-03-17T06:10:28;5.30;99.90
57390;DHT22;43217;52.694;6.214;2024-03-17T06:12:53;5.40;99.90
57390;DHT22;43217;52.694;6.214;2024-03-17T06:15:19;5.40;99.90
57390;DHT22;43217;52.694;6.214;2024-03-17T06:17:46;5.40;99.90
57390;DHT22;43217;52.694;6.214;2024-03-17T06:20:12;5.40;99.90
57390;DHT22;43217;52.694;6.214;2024-03-17T06:22:39;5.40;99.90
57390;DHT22;43217;52.694;6.214;2024-03-17T06:25:08;5.50;99.90
57390;DHT22;43217;52.694;6.214;2024-03-17T06:27:34;5.50;99.90
57390;DHT22;43217;52.694;6.214;2024-03-17T06:30:00;5.50;99.90
57390;DHT22;43217;52.694;6.214;2024-03-17T06:32:29;5.50;99.90
57390;DHT22;43217;52.694;6.214;2024-03-17T06:34:56;5.50;99.90
57390;DHT22;43217;52.694;6.214;2024-03-17T06:37:22;5.60;99.90
57390;DHT22;43217;52.694;6.214;2024-03-17T06:39:48;5.60;99.90
57390;DHT22;43217;52.694;6.214;2024-03-17T06:42:14;5.60;99.90
57390;DHT22;43217;52.694;6.214;2024-03-17T06:44:41;5.60;99.90
57390;DHT22;43217;52.694;6.214;2024-03-17T06:47:06;5.60;99.90
57390;DHT22;43217;52.694;6.214;2024-03-17T06:49:32;5.70;99.90
57390;DHT22;43217;52.694;6.214;2024-03-17T06:51:58;5.70;99.90
57390;DHT22;43217;52.694;6.214;2024-03-17T06:54:24;5.70;99.90
57390;DHT22;43217;52.694;6.214;2024-03-17T06:56:49;5.80;99.90
57390;DHT22;43217;52.694;6.214;2024-03-17T06:59:17;5.90;99.90
57390;DHT22;43217;52.694;6.214;2024-03-17T07:01:42;6.00;99.90
57390;DHT22;43217;52.694;6.214;2024-03-17T07:04:10;6.00;99.90
57390;DHT22;43217;52.694;6.214;2024-03-17T07:06:36;6.10;99.90
57390;DHT22;43217;52.694;6.214;2024-03-17T07:09:02;6.30;99.90
57390;DHT22;43217;52.694;6.214;2024-03-17T07:11:28;6.40;99.90
57390;DHT22;43217;52.694;6.214;2024-03-17T07:13:53;6.50;99.90
57390;DHT22;43217;52.694;6.214;2024-03-17T07:16:19;6.50;99.90
57390;DHT22;43217;52.694;6.214;2024-03-17T07:18:47;6.50;99.90
57390;DHT22;43217;52.694;6.214;2024-03-17T07:21:12;6.50;99.90
57390;DHT22;43217;52.694;6.214;2024-03-17T07:23:38;6.50;99.90
57390;DHT22;43217;52.694;6.214;2024-03-17T07:26:04;6.60;99.90
57390;DHT22;43217;52.694;6.214;2024-03-17T07:28:31;6.70;99.90
57390;DHT22;43217;52.694;6.214;2024-03-17T07:30:58;6.80;99.90
57390;DHT22;43217;52.694;6.214;2024-03-17T07:33:26;6.90;99.90
57390;DHT22;43217;52.694;6.214;2024-03-17T07:35:56;6.90;99.90
57390;DHT22;43217;52.694;6.214;2024-03-17T07:38:23;6.90;99.90
57390;DHT22;43217;52.694;6.214;2024-03-17T07:41:23;6.90;99.90
57390;DHT22;43217;52.694;6.214;2024-03-17T07:43:50;7.00;99.90
57390;DHT22;43217;52.694;6.214;2024-03-17T07:46:15;7.00;99.90
57390;DHT22;43217;52.694;6.214;2024-03-17T07:48:43;7.10;99.90
57390;DHT22;43217;52.694;6.214;2024-03-17T07:51:14;7.20;99.90
57390;DHT22;43217;52.694;6.214;2024-03-17T07:53:41;7.40;99.90
57390;DHT22;43217;52.694;6.214;2024-03-17T07:56:14;7.50;99.90
57390;DHT22;43217;52.694;6.214;2024-03-17T07:58:41;7.70;99.90
57390;DHT22;43217;52.694;6.214;2024-03-17T08:03:39;7.90;99.90
57390;DHT22;43217;52.694;6.214;2024-03-17T08:06:08;7.90;99.90
57390;DHT22;43217;52.694;6.214;2024-03-17T08:08:35;7.90;99.90
57390;DHT22;43217;52.694;6.214;2024-03-17T08:11:01;7.90;99.90
57390;DHT22;43217;52.694;6.214;2024-03-17T08:13:30;7.90;99.90
57390;DHT22;43217;52.694;6.214;2024-03-17T08:16:02;7.90;99.90
57390;DHT22;43217;52.694;6.214;2024-03-17T08:18:28;7.90;99.90
57390;DHT22;43217;52.694;6.214;2024-03-17T08:20:54;8.00;99.90
57390;DHT22;43217;52.694;6.214;2024-03-17T08:23:20;8.10;99.90
57390;DHT22;43217;52.694;6.214;2024-03-17T08:25:53;8.20;99.90
57390;DHT22;43217;52.694;6.214;2024-03-17T08:28:20;8.30;99.90
57390;DHT22;43217;52.694;6.214;2024-03-17T08:30:59;8.40;99.90
57390;DHT22;43217;52.694;6.214;2024-03-17T08:33:25;8.60;99.90
57390;DHT22;43217;52.694;6.214;2024-03-17T08:35:58;8.70;99.90
57390;DHT22;43217;52.694;6.214;2024-03-17T08:38:26;8.90;99.90
57390;DHT22;43217;52.694;6.214;2024-03-17T08:40:53;9.00;99.90
57390;DHT22;43217;52.694;6.214;2024-03-17T08:43:20;9.10;99.90
57390;DHT22;43217;52.694;6.214;2024-03-17T08:46:00;9.20;99.90
57390;DHT22;43217;52.694;6.214;2024-03-17T08:48:29;9.20;99.90
57390;DHT22;43217;52.694;6.214;2024-03-17T08:50:56;9.20;99.90
57390;DHT22;43217;52.694;6.214;2024-03-17T08:53:23;9.20;99.90
57390;DHT22;43217;52.694;6.214;2024-03-17T08:55:49;9.10;99.90
57390;DHT22;43217;52.694;6.214;2024-03-17T08:58:15;9.30;99.90
57390;DHT22;43217;52.694;6.214;2024-03-17T09:00:41;9.60;99.90
57390;DHT22;43217;52.694;6.214;2024-03-17T09:03:08;10.20;99.90
57390;DHT22;43217;52.694;6.214;2024-03-17T09:05:38;10.70;99.90
57390;DHT22;43217;52.694;6.214;2024-03-17T09:08:05;10.80;99.90
57390;DHT22;43217;52.694;6.214;2024-03-17T09:10:31;10.80;99.90
57390;DHT22;43217;52.694;6.214;2024-03-17T09:12:57;10.90;99.90
57390;DHT22;43217;52.694;6.214;2024-03-17T09:15:22;11.00;99.90
57390;DHT22;43217;52.694;6.214;2024-03-17T09:17:48;11.00;99.90
57390;DHT22;43217;52.694;6.214;2024-03-17T09:20:14;11.00;99.90
57390;DHT22;43217;52.694;6.214;2024-03-17T09:22:43;11.00;99.90
57390;DHT22;43217;52.694;6.214;2024-03-17T09:25:09;11.00;99.90
57390;DHT22;43217;52.694;6.214;2024-03-17T09:27:35;11.10;99.90
57390;DHT22;43217;52.694;6.214;2024-03-17T09:30:03;11.00;99.90
57390;DHT22;43217;52.694;6.214;2024-03-17T09:32:32;11.00;99.90
57390;DHT22;43217;52.694;6.214;2024-03-17T09:34:58;11.00;99.90
57390;DHT22;43217;52.694;6.214;2024-03-17T09:37:23;11.10;99.90
57390;DHT22;43217;52.694;6.214;2024-03-17T09:39:49;11.10;99.90
57390;DHT22;43217;52.694;6.214;2024-03-17T09:42:19;11.10;99.90
57390;DHT22;43217;52.694;6.214;2024-03-17T09:44:48;11.00;99.90
57390;DHT22;43217;52.694;6.214;2024-03-17T09:47:20;11.00;99.90
57390;DHT22;43217;52.694;6.214;2024-03-17T09:49:47;11.00;99.90
57390;DHT22;43217;52.694;6.214;2024-03-17T09:52:23;10.90;99.90
57390;DHT22;43217;52.694;6.214;2024-03-17T09:55:00;10.80;99.90
57390;DHT22;43217;52.694;6.214;2024-03-17T09:57:27;10.80;99.90
57390;DHT22;43217;52.694;6.214;2024-03-17T09:59:54;10.80;99.90
57390;DHT22;43217;52.694;6.214;2024-03-17T10:02:20;10.80;99.90
57390;DHT22;43217;52.694;6.214;2024-03-17T10:04:46;10.80;99.90
57390;DHT22;43217;52.694;6.214;2024-03-17T10:07:12;10.80;99.90
57390;DHT22;43217;52.694;6.214;2024-03-17T10:09:37;10.80;99.90
57390;DHT22;43217;52.694;6.214;2024-03-17T10:12:04;10.90;99.90
57390;DHT22;43217;52.694;6.214;2024-03-17T10:14:31;10.80;99.90
57390;DHT22;43217;52.694;6.214;2024-03-17T10:16:57;10.80;99.90
57390;DHT22;43217;52.694;6.214;2024-03-17T10:19:24;10.70;99.90
57390;DHT22;43217;52.694;6.214;2024-03-17T10:21:50;10.70;99.90
57390;DHT22;43217;52.694;6.214;2024-03-17T10:24:24;10.70;99.90
57390;DHT22;43217;52.694;6.214;2024-03-17T10:26:52;10.70;99.90
57390;DHT22;43217;52.694;6.214;2024-03-17T10:29:24;10.70;99.90
57390;DHT22;43217;52.694;6.214;2024-03-17T10:31:55;10.70;99.90
57390;DHT22;43217;52.694;6.214;2024-03-17T10:34:21;10.60;99.90
57390;DHT22;43217;52.694;6.214;2024-03-17T10:37:05;10.60;99.90
57390;DHT22;43217;52.694;6.214;2024-03-17T10:39:31;10.60;99.90
57390;DHT22;43217;52.694;6.214;2024-03-17T10:42:02;10.60;99.90
57390;DHT22;43217;52.694;6.214;2024-03-17T10:44:29;10.60;99.90
57390;DHT22;43217;52.694;6.214;2024-03-17T10:46:55;10.60;99.90
57390;DHT22;43217;52.694;6.214;2024-03-17T10:49:28;10.60;99.90
57390;DHT22;43217;52.694;6.214;2024-03-17T10:51:58;10.60;99.90
57390;DHT22;43217;52.694;6.214;2024-03-17T10:54:25;10.70;99.90
57390;DHT22;43217;52.694;6.214;2024-03-17T11:00:00;10.80;99.90
57390;DHT22;43217;52.694;6.214;2024-03-17T11:02:29;10.90;99.90
57390;DHT22;43217;52.694;6.214;2024-03-17T11:05:05;11.00;99.90
57390;DHT22;43217;52.694;6.214;2024-03-17T11:07:32;11.10;99.90
57390;DHT22;43217;52.694;6.214;2024-03-17T11:10:00;11.10;99.90
57390;DHT22;43217;52.694;6.214;2024-03-17T11:12:41;11.20;99.90
57390;DHT22;43217;52.694;6.214;2024-03-17T11:18:27;11.30;99.90
57390;DHT22;43217;52.694;6.214;2024-03-17T11:21:10;11.30;99.90
57390;DHT22;43217;52.694;6.214;2024-03-17T11:23:59;11.30;99.90
57390;DHT22;43217;52.694;6.214;2024-03-17T11:26:29;11.40;99.90
57390;DHT22;43217;52.694;6.214;2024-03-17T11:28:55;11.50;99.90
57390;DHT22;43217;52.694;6.214;2024-03-17T11:34:29;11.60;99.90
57390;DHT22;43217;52.694;6.214;2024-03-17T11:36:57;11.70;99.90
57390;DHT22;43217;52.694;6.214;2024-03-17T11:39:48;11.70;99.90
57390;DHT22;43217;52.694;6.214;2024-03-17T11:42:25;11.70;99.90
57390;DHT22;43217;52.694;6.214;2024-03-17T11:45:17;11.60;99.90
57390;DHT22;43217;52.694;6.214;2024-03-17T11:47:47;11.60;99.90
57390;DHT22;43217;52.694;6.214;2024-03-17T11:50:15;11.60;99.90
57390;DHT22;43217;52.694;6.214;2024-03-17T11:52:41;11.60;99.90
57390;DHT22;43217;52.694;6.214;2024-03-17T11:55:16;11.70;99.90
57390;DHT22;43217;52.694;6.214;2024-03-17T11:57:43;11.60;99.90
57390;DHT22;43217;52.694;6.214;2024-03-17T12:00:22;11.60;99.90
57390;DHT22;43217;52.694;6.214;2024-03-17T12:02:49;11.70;99.90
57390;DHT22;43217;52.694;6.214;2024-03-17T12:05:15;11.70;99.90
57390;DHT22;43217;52.694;6.214;2024-03-17T12:07:44;11.70;99.90
57390;DHT22;43217;52.694;6.214;2024-03-17T12:10:10;11.80;99.90
57390;DHT22;43217;52.694;6.214;2024-03-17T12:12:36;11.80;99.90
57390;DHT22;43217;52.694;6.214;2024-03-17T12:15:03;11.80;99.90
57390;DHT22;43217;52.694;6.214;2024-03-17T12:17:31;11.90;99.90
57390;DHT22;43217;52.694;6.214;2024-03-17T12:19:56;11.90;99.90
57390;DHT22;43217;52.694;6.214;2024-03-17T12:22:24;12.00;99.90
57390;DHT22;43217;52.694;6.214;2024-03-17T12:24:57;12.00;99.90
57390;DHT22;43217;52.694;6.214;2024-03-17T12:27:25;12.00;99.90
57390;DHT22;43217;52.694;6.214;2024-03-17T12:29:53;12.00;99.90
57390;DHT22;43217;52.694;6.214;2024-03-17T12:32:20;12.10;99.90
57390;DHT22;43217;52.694;6.214;2024-03-17T12:34:50;12.10;99.90
57390;DHT22;43217;52.694;6.214;2024-03-17T12:39:43;12.20;99.90
57390;DHT22;43217;52.694;6.214;2024-03-17T12:42:16;12.20;99.90
57390;DHT22;43217;52.694;6.214;2024-03-17T12:44:49;12.20;99.90
57390;DHT22;43217;52.694;6.214;2024-03-17T12:47:35;12.20;99.90
57390;DHT22;43217;52.694;6.214;2024-03-17T12:50:02;12.30;99.90
57390;DHT22;43217;52.694;6.214;2024-03-17T12:52:34;12.20;99.90
57390;DHT22;43217;52.694;6.214;2024-03-17T12:57:45;12.40;99.90
57390;DHT22;43217;52.694;6.214;2024-03-17T13:00:29;12.40;99.90
57390;DHT22;43217;52.694;6.214;2024-03-17T13:02:59;12.40;99.90
57390;DHT22;43217;52.694;6.214;2024-03-17T13:05:25;12.50;99.90
57390;DHT22;43217;52.694;6.214;2024-03-17T13:07:51;12.50;99.90
57390;DHT22;43217;52.694;6.214;2024-03-17T13:10:20;12.60;99.90
57390;DHT22;43217;52.694;6.214;2024-03-17T13:12:46;12.60;99.90
57390;DHT22;43217;52.694;6.214;2024-03-17T13:15:14;12.60;99.90
57390;DHT22;43217;52.694;6.214;2024-03-17T13:17:41;12.60;99.90
57390;DHT22;43217;52.694;6.214;2024-03-17T13:20:13;12.60;99.90
57390;DHT22;43217;52.694;6.214;2024-03-17T13:22:43;12.60;99.90
57390;DHT22;43217;52.694;6.214;2024-03-17T13:25:15;12.60;99.90
57390;DHT22;43217;52.694;6.214;2024-03-17T13:27:45;12.60;99.90
57390;DHT22;43217;52.694;6.214;2024-03-17T13:30:24;12.60;99.90
57390;DHT22;43217;52.694;6.214;2024-03-17T13:32:53;12.60;99.90
57390;DHT22;43217;52.694;6.214;2024-03-17T13:35:30;12.60;99.90
57390;DHT22;43217;52.694;6.214;2024-03-17T13:37:57;12.70;99.90
57390;DHT22;43217;52.694;6.214;2024-03-17T13:40:26;12.60;99.90
57390;DHT22;43217;52.694;6.214;2024-03-17T13:42:54;12.70;99.90
57390;DHT22;43217;52.694;6.214;2024-03-17T13:45:20;12.60;99.90
57390;DHT22;43217;52.694;6.214;2024-03-17T13:47:52;12.60;99.90
57390;DHT22;43217;52.694;6.214;2024-03-17T13:50:19;12.60;99.90
57390;DHT22;43217;52.694;6.214;2024-03-17T13:52:44;12.60;99.90
57390;DHT22;43217;52.694;6.214;2024-03-17T13:55:15;12.50;99.90
57390;DHT22;43217;52.694;6.214;2024-03-17T13:57:44;12.50;99.90
57390;DHT22;43217;52.694;6.214;2024-03-17T14:00:10;12.50;99.90
57390;DHT22;43217;52.694;6.214;2024-03-17T14:02:42;12.50;99.90
57390;DHT22;43217;52.694;6.214;2024-03-17T14:05:10;12.50;99.90
57390;DHT22;43217;52.694;6.214;2024-03-17T14:07:37;12.50;99.90
57390;DHT22;43217;52.694;6.214;2024-03-17T14:10:02;12.50;99.90
57390;DHT22;43217;52.694;6.214;2024-03-17T14:12:28;12.50;99.90
57390;DHT22;43217;52.694;6.214;2024-03-17T14:14:54;12.40;99.90
57390;DHT22;43217;52.694;6.214;2024-03-17T14:17:20;12.40;99.90
57390;DHT22;43217;52.694;6.214;2024-03-17T14:19:45;12.40;99.90
57390;DHT22;43217;52.694;6.214;2024-03-17T14:22:11;12.40;99.90
57390;DHT22;43217;52.694;6.214;2024-03-17T14:24:36;12.40;99.90
57390;DHT22;43217;52.694;6.214;2024-03-17T14:27:02;12.50;99.90
57390;DHT22;43217;52.694;6.214;2024-03-17T14:29:28;12.50;99.90
57390;DHT22;43217;52.694;6.214;2024-03-17T14:31:53;12.50;99.90
57390;DHT22;43217;52.694;6.214;2024-03-17T14:34:19;12.50;99.90
57390;DHT22;43217;52.694;6.214;2024-03-17T14:36:45;12.50;99.90
57390;DHT22;43217;52.694;6.214;2024-03-17T14:39:10;12.60;99.90
57390;DHT22;43217;52.694;6.214;2024-03-17T14:41:36;12.50;99.90
57390;DHT22;43217;52.694;6.214;2024-03-17T14:44:02;12.50;99.90
57390;DHT22;43217;52.694;6.214;2024-03-17T14:46:29;12.50;99.90
57390;DHT22;43217;52.694;6.214;2024-03-17T14:48:55;12.50;99.90
57390;DHT22;43217;52.694;6.214;2024-03-17T14:51:20;12.50;99.90
57390;DHT22;43217;52.694;6.214;2024-03-17T14:53:49;12.50;99.90
57390;DHT22;43217;52.694;6.214;2024-03-17T14:56:20;12.50;99.90
57390;DHT22;43217;52.694;6.214;2024-03-17T14:58:46;12.50;99.90
57390;DHT22;43217;52.694;6.214;2024-03-17T15:01:13;12.50;99.90
57390;DHT22;43217;52.694;6.214;2024-03-17T15:03:42;12.50;99.90
57390;DHT22;43217;52.694;6.214;2024-03-17T15:06:14;12.40;99.90
57390;DHT22;43217;52.694;6.214;2024-03-17T15:08:44;12.40;99.90
57390;DHT22;43217;52.694;6.214;2024-03-17T15:11:10;12.40;99.90
57390;DHT22;43217;52.694;6.214;2024-03-17T15:13:36;12.30;99.90
57390;DHT22;43217;52.694;6.214;2024-03-17T15:16:03;12.30;99.90
57390;DHT22;43217;52.694;6.214;2024-03-17T15:18:30;12.30;99.90
57390;DHT22;43217;52.694;6.214;2024-03-17T15:20:57;12.20;99.90
57390;DHT22;43217;52.694;6.214;2024-03-17T15:23:22;12.20;99.90
57390;DHT22;43217;52.694;6.214;2024-03-17T15:26:06;12.10;99.90
57390;DHT22;43217;52.694;6.214;2024-03-17T15:28:39;12.10;99.90
57390;DHT22;43217;52.694;6.214;2024-03-17T15:31:06;12.10;99.90
57390;DHT22;43217;52.694;6.214;2024-03-17T15:33:32;12.10;99.90
57390;DHT22;43217;52.694;6.214;2024-03-17T15:36:01;12.00;99.90
57390;DHT22;43217;52.694;6.214;2024-03-17T15:38:33;12.00;99.90
57390;DHT22;43217;52.694;6.214;2024-03-17T15:41:09;12.10;99.90
57390;DHT22;43217;52.694;6.214;2024-03-17T15:43:39;12.00;99.90
57390;DHT22;43217;52.694;6.214;2024-03-17T15:46:14;12.00;99.90
57390;DHT22;43217;52.694;6.214;2024-03-17T15:48:41;12.00;99.90
57390;DHT22;43217;52.694;6.214;2024-03-17T15:51:07;12.00;99.90
57390;DHT22;43217;52.694;6.214;2024-03-17T15:53:32;12.00;99.90
57390;DHT22;43217;52.694;6.214;2024-03-17T15:55:59;12.00;99.90
57390;DHT22;43217;52.694;6.214;2024-03-17T15:58:27;12.00;99.90
57390;DHT22;43217;52.694;6.214;2024-03-17T16:00:57;11.90;99.90